sensor_id;sensor_type;location;lat;lon;timestamp;P1;durP1;ratioP1;P2;durP2;ratioP2
78781;SDS011;68126;55.748;48.742;2023-03-17T00:02:59;2.17;;;1.25;;
78781;SDS011;68126;55.748;48.742;2023-03-17T00:14:08;2.40;;;1.55;;
78781;SDS011;68126;55.748;48.742;2023-03-17T00:19:33;1.67;;;1.57;;
78781;SDS011;68126;55.748;48.742;2023-03-17T00:24:58;2.02;;;1.92;;
78781;SDS011;68126;55.748;48.742;2023-03-17T00:30:25;1.27;;;0.65;;
78781;SDS011;68126;55.748;48.742;2023-03-17T00:35:49;1.30;;;1.20;;
78781;SDS011;68126;55.748;48.742;2023-03-17T00:41:14;0.65;;;0.65;;
78781;SDS011;68126;55.748;48.742;2023-03-17T00:46:39;1.02;;;0.93;;
78781;SDS011;68126;55.748;48.742;2023-03-17T00:52:04;2.42;;;1.22;;
78781;SDS011;68126;55.748;48.742;2023-03-17T00:57:29;0.98;;;0.57;;
78781;SDS011;68126;55.748;48.742;2023-03-17T01:02:55;1.42;;;1.20;;
78781;SDS011;68126;55.748;48.742;2023-03-17T01:14:05;0.95;;;0.90;;
78781;SDS011;68126;55.748;48.742;2023-03-17T01:19:30;1.77;;;1.07;;
78781;SDS011;68126;55.748;48.742;2023-03-17T01:24:55;1.75;;;1.65;;
78781;SDS011;68126;55.748;48.742;2023-03-17T01:30:51;2.10;;;0.93;;
78781;SDS011;68126;55.748;48.742;2023-03-17T01:35:47;1.55;;;1.02;;
78781;SDS011;68126;55.748;48.742;2023-03-17T01:41:11;1.72;;;1.07;;
78781;SDS011;68126;55.748;48.742;2023-03-17T01:46:36;1.07;;;0.90;;
78781;SDS011;68126;55.748;48.742;2023-03-17T02:03:32;1.95;;;0.68;;
78781;SDS011;68126;55.748;48.742;2023-03-17T02:08:56;1.40;;;1.30;;
78781;SDS011;68126;55.748;48.742;2023-03-17T02:14:21;1.67;;;0.50;;
78781;SDS011;68126;55.748;48.742;2023-03-17T02:19:46;1.30;;;0.80;;
78781;SDS011;68126;55.748;48.742;2023-03-17T02:25:11;2.00;;;0.98;;
78781;SDS011;68126;55.748;48.742;2023-03-17T02:30:36;2.83;;;1.00;;
78781;SDS011;68126;55.748;48.742;2023-03-17T02:36:00;1.35;;;0.93;;
78781;SDS011;68126;55.748;48.742;2023-03-17T02:41:25;1.25;;;1.15;;
78781;SDS011;68126;55.748;48.742;2023-03-17T02:46:50;1.65;;;1.35;;
78781;SDS011;68126;55.748;48.742;2023-03-17T02:52:15;0.85;;;0.70;;
78781;SDS011;68126;55.748;48.742;2023-03-17T02:57:39;1.35;;;1.25;;
78781;SDS011;68126;55.748;48.742;2023-03-17T03:03:04;5.35;;;2.22;;
78781;SDS011;68126;55.748;48.742;2023-03-17T03:08:29;1.60;;;1.50;;
78781;SDS011;68126;55.748;48.742;2023-03-17T03:13:53;1.55;;;1.45;;
78781;SDS011;68126;55.748;48.742;2023-03-17T03:19:18;2.67;;;1.35;;
78781;SDS011;68126;55.748;48.742;2023-03-17T03:24:43;1.25;;;1.15;;
78781;SDS011;68126;55.748;48.742;2023-03-17T03:30:40;3.25;;;1.05;;
78781;SDS011;68126;55.748;48.742;2023-03-17T03:35:56;2.83;;;1.37;;
78781;SDS011;68126;55.748;48.742;2023-03-17T03:41:20;2.20;;;0.72;;
78781;SDS011;68126;55.748;48.742;2023-03-17T03:46:45;0.62;;;0.42;;
78781;SDS011;68126;55.748;48.742;2023-03-17T03:52:10;1.32;;;1.07;;
78781;SDS011;68126;55.748;48.742;2023-03-17T03:57:38;1.20;;;1.02;;
78781;SDS011;68126;55.748;48.742;2023-03-17T04:03:23;1.65;;;1.25;;
78781;SDS011;68126;55.748;48.742;2023-03-17T04:08:49;2.80;;;1.15;;
78781;SDS011;68126;55.748;48.742;2023-03-17T04:14:13;2.37;;;1.27;;
78781;SDS011;68126;55.748;48.742;2023-03-17T04:19:38;12.20;;;0.50;;
78781;SDS011;68126;55.748;48.742;2023-03-17T04:25:03;1.42;;;1.05;;
78781;SDS011;68126;55.748;48.742;2023-03-17T04:30:30;7.50;;;1.25;;
78781;SDS011;68126;55.748;48.742;2023-03-17T04:35:54;2.62;;;0.68;;
78781;SDS011;68126;55.748;48.742;2023-03-17T04:41:19;4.67;;;1.70;;
78781;SDS011;68126;55.748;48.742;2023-03-17T04:46:44;3.75;;;0.85;;
78781;SDS011;68126;55.748;48.742;2023-03-17T04:52:09;1.42;;;0.78;;
78781;SDS011;68126;55.748;48.742;2023-03-17T04:58:28;0.90;;;0.65;;
78781;SDS011;68126;55.748;48.742;2023-03-17T05:03:19;1.45;;;1.35;;
78781;SDS011;68126;55.748;48.742;2023-03-17T05:08:46;4.47;;;0.70;;
78781;SDS011;68126;55.748;48.742;2023-03-17T05:14:10;5.83;;;0.78;;
78781;SDS011;68126;55.748;48.742;2023-03-17T05:19:34;3.58;;;1.70;;
78781;SDS011;68126;55.748;48.742;2023-03-17T05:24:59;1.72;;;1.52;;
78781;SDS011;68126;55.748;48.742;2023-03-17T05:30:25;3.02;;;1.07;;
78781;SDS011;68126;55.748;48.742;2023-03-17T05:35:52;3.30;;;1.15;;
78781;SDS011;68126;55.748;48.742;2023-03-17T05:41:17;4.72;;;0.90;;
78781;SDS011;68126;55.748;48.742;2023-03-17T05:46:42;7.78;;;2.08;;
78781;SDS011;68126;55.748;48.742;2023-03-17T05:52:07;2.20;;;0.80;;
78781;SDS011;68126;55.748;48.742;2023-03-17T05:57:31;5.42;;;1.30;;
78781;SDS011;68126;55.748;48.742;2023-03-17T06:02:56;9.83;;;1.10;;
78781;SDS011;68126;55.748;48.742;2023-03-17T06:08:21;4.08;;;1.17;;
78781;SDS011;68126;55.748;48.742;2023-03-17T06:13:46;2.25;;;1.05;;
78781;SDS011;68126;55.748;48.742;2023-03-17T06:19:10;1.10;;;0.53;;
78781;SDS011;68126;55.748;48.742;2023-03-17T06:24:35;1.87;;;0.72;;
78781;SDS011;68126;55.748;48.742;2023-03-17T06:30:00;1.62;;;0.98;;
78781;SDS011;68126;55.748;48.742;2023-03-17T06:35:25;5.45;;;1.02;;
78781;SDS011;68126;55.748;48.742;2023-03-17T06:40:50;2.80;;;1.17;;
78781;SDS011;68126;55.748;48.742;2023-03-17T06:46:15;2.67;;;1.17;;
78781;SDS011;68126;55.748;48.742;2023-03-17T06:51:39;0.82;;;0.55;;
78781;SDS011;68126;55.748;48.742;2023-03-17T06:57:04;3.35;;;1.07;;
78781;SDS011;68126;55.748;48.742;2023-03-17T07:02:29;4.83;;;1.52;;
78781;SDS011;68126;55.748;48.742;2023-03-17T07:07:55;2.05;;;0.95;;
78781;SDS011;68126;55.748;48.742;2023-03-17T07:13:19;3.47;;;0.62;;
78781;SDS011;68126;55.748;48.742;2023-03-17T07:18:44;3.17;;;0.93;;
78781;SDS011;68126;55.748;48.742;2023-03-17T07:24:09;4.85;;;1.98;;
78781;SDS011;68126;55.748;48.742;2023-03-17T07:29:34;1.30;;;1.02;;
78781;SDS011;68126;55.748;48.742;2023-03-17T07:34:58;6.55;;;1.30;;
78781;SDS011;68126;55.748;48.742;2023-03-17T07:40:23;6.20;;;1.65;;
78781;SDS011;68126;55.748;48.742;2023-03-17T07:45:50;6.58;;;1.65;;
78781;SDS011;68126;55.748;48.742;2023-03-17T07:51:16;6.47;;;1.10;;
78781;SDS011;68126;55.748;48.742;2023-03-17T07:56:42;11.65;;;1.25;;
78781;SDS011;68126;55.748;48.742;2023-03-17T08:02:10;4.92;;;0.70;;
78781;SDS011;68126;55.748;48.742;2023-03-17T08:07:33;3.70;;;1.10;;
78781;SDS011;68126;55.748;48.742;2023-03-17T08:13:18;5.78;;;0.70;;
78781;SDS011;68126;55.748;48.742;2023-03-17T08:18:42;7.80;;;1.20;;
78781;SDS011;68126;55.748;48.742;2023-03-17T08:24:40;5.95;;;0.70;;
78781;SDS011;68126;55.748;48.742;2023-03-17T08:29:33;6.67;;;1.92;;
78781;SDS011;68126;55.748;48.742;2023-03-17T08:34:58;7.10;;;1.15;;
78781;SDS011;68126;55.748;48.742;2023-03-17T08:51:57;3.75;;;0.72;;
78781;SDS011;68126;55.748;48.742;2023-03-17T08:57:22;5.00;;;0.82;;
78781;SDS011;68126;55.748;48.742;2023-03-17T09:02:47;5.53;;;1.07;;
78781;SDS011;68126;55.748;48.742;2023-03-17T09:08:14;5.35;;;1.50;;
78781;SDS011;68126;55.748;48.742;2023-03-17T09:13:39;7.72;;;1.25;;
78781;SDS011;68126;55.748;48.742;2023-03-17T09:19:03;6.37;;;1.95;;
78781;SDS011;68126;55.748;48.742;2023-03-17T09:24:28;3.10;;;1.00;;
78781;SDS011;68126;55.748;48.742;2023-03-17T09:29:52;3.58;;;0.88;;
78781;SDS011;68126;55.748;48.742;2023-03-17T09:35:17;4.67;;;0.70;;
78781;SDS011;68126;55.748;48.742;2023-03-17T09:52:13;8.08;;;1.17;;
78781;SDS011;68126;55.748;48.742;2023-03-17T09:57:39;12.07;;;1.10;;
78781;SDS011;68126;55.748;48.742;2023-03-17T10:03:04;4.90;;;1.05;;
78781;SDS011;68126;55.748;48.742;2023-03-17T10:08:30;4.97;;;1.02;;
78781;SDS011;68126;55.748;48.742;2023-03-17T10:13:57;7.83;;;1.00;;
78781;SDS011;68126;55.748;48.742;2023-03-17T10:30:52;9.03;;;1.10;;
78781;SDS011;68126;55.748;48.742;2023-03-17T10:36:30;8.30;;;1.12;;
78781;SDS011;68126;55.748;48.742;2023-03-17T11:09:56;9.20;;;1.17;;
78781;SDS011;68126;55.748;48.742;2023-03-17T11:15:18;4.25;;;1.52;;
78781;SDS011;68126;55.748;48.742;2023-03-17T11:32:46;7.87;;;1.52;;
78781;SDS011;68126;55.748;48.742;2023-03-17T11:43:59;5.33;;;1.10;;
78781;SDS011;68126;55.748;48.742;2023-03-17T12:05:49;21.35;;;10.80;;
78781;SDS011;68126;55.748;48.742;2023-03-17T12:11:46;8.10;;;1.67;;
78781;SDS011;68126;55.748;48.742;2023-03-17T12:22:31;7.58;;;1.30;;
78781;SDS011;68126;55.748;48.742;2023-03-17T12:39:59;9.40;;;1.77;;
78781;SDS011;68126;55.748;48.742;2023-03-17T12:44:57;3.12;;;2.17;;
78781;SDS011;68126;55.748;48.742;2023-03-17T13:24:51;9.28;;;2.10;;
78781;SDS011;68126;55.748;48.742;2023-03-17T13:47:07;7.50;;;2.85;;
78781;SDS011;68126;55.748;48.742;2023-03-17T14:03:35;6.37;;;2.62;;
78781;SDS011;68126;55.748;48.742;2023-03-17T14:09:00;9.55;;;3.65;;
78781;SDS011;68126;55.748;48.742;2023-03-17T14:25:57;19.60;;;10.00;;
78781;SDS011;68126;55.748;48.742;2023-03-17T14:31:23;20.57;;;7.85;;
78781;SDS011;68126;55.748;48.742;2023-03-17T14:36:50;28.17;;;15.68;;
78781;SDS011;68126;55.748;48.742;2023-03-17T14:42:16;29.00;;;9.25;;
78781;SDS011;68126;55.748;48.742;2023-03-17T14:47:42;19.17;;;7.65;;
78781;SDS011;68126;55.748;48.742;2023-03-17T14:53:08;17.67;;;8.60;;
78781;SDS011;68126;55.748;48.742;2023-03-17T15:04:55;59.93;;;7.40;;
78781;SDS011;68126;55.748;48.742;2023-03-17T15:09:44;138.32;;;11.08;;
78781;SDS011;68126;55.748;48.742;2023-03-17T15:20:54;156.55;;;11.35;;
78781;SDS011;68126;55.748;48.742;2023-03-17T15:43:49;150.97;;;12.58;;
78781;SDS011;68126;55.748;48.742;2023-03-17T15:54:43;181.05;;;12.05;;
78781;SDS011;68126;55.748;48.742;2023-03-17T16:00:08;303.25;;;14.35;;
78781;SDS011;68126;55.748;48.742;2023-03-17T16:05:33;141.05;;;9.45;;
78781;SDS011;68126;55.748;48.742;2023-03-17T16:17:04;7.85;;;4.10;;
78781;SDS011;68126;55.748;48.742;2023-03-17T16:27:56;4.62;;;2.98;;
78781;SDS011;68126;55.748;48.742;2023-03-17T16:33:56;4.33;;;2.90;;
78781;SDS011;68126;55.748;48.742;2023-03-17T16:38:47;3.65;;;2.33;;
78781;SDS011;68126;55.748;48.742;2023-03-17T16:44:13;3.65;;;3.30;;
78781;SDS011;68126;55.748;48.742;2023-03-17T16:49:40;3.83;;;2.77;;
78781;SDS011;68126;55.748;48.742;2023-03-17T16:55:05;4.22;;;3.42;;
78781;SDS011;68126;55.748;48.742;2023-03-17T17:00:30;3.70;;;2.65;;
78781;SDS011;68126;55.748;48.742;2023-03-17T17:05:55;4.20;;;3.05;;
78781;SDS011;68126;55.748;48.742;2023-03-17T17:11:20;4.37;;;2.67;;
78781;SDS011;68126;55.748;48.742;2023-03-17T17:17:04;4.20;;;2.45;;
78781;SDS011;68126;55.748;48.742;2023-03-17T17:22:31;3.77;;;3.22;;
78781;SDS011;68126;55.748;48.742;2023-03-17T17:27:56;4.15;;;3.02;;
78781;SDS011;68126;55.748;48.742;2023-03-17T17:33:21;5.15;;;2.87;;
78781;SDS011;68126;55.748;48.742;2023-03-17T17:38:47;4.95;;;2.92;;
78781;SDS011;68126;55.748;48.742;2023-03-17T17:44:12;4.45;;;3.15;;
78781;SDS011;68126;55.748;48.742;2023-03-17T17:49:37;4.37;;;2.95;;
78781;SDS011;68126;55.748;48.742;2023-03-17T17:55:02;3.77;;;2.45;;
78781;SDS011;68126;55.748;48.742;2023-03-17T18:00:27;5.87;;;3.15;;
78781;SDS011;68126;55.748;48.742;2023-03-17T18:05:53;3.90;;;2.22;;
78781;SDS011;68126;55.748;48.742;2023-03-17T18:11:17;3.35;;;2.42;;
78781;SDS011;68126;55.748;48.742;2023-03-17T18:16:42;4.58;;;3.05;;
78781;SDS011;68126;55.748;48.742;2023-03-17T18:22:07;5.15;;;2.50;;
78781;SDS011;68126;55.748;48.742;2023-03-17T18:27:32;3.27;;;1.95;;
78781;SDS011;68126;55.748;48.742;2023-03-17T18:32:59;3.25;;;2.25;;
78781;SDS011;68126;55.748;48.742;2023-03-17T18:38:23;3.12;;;2.08;;
78781;SDS011;68126;55.748;48.742;2023-03-17T18:43:48;2.67;;;2.15;;
78781;SDS011;68126;55.748;48.742;2023-03-17T18:49:12;2.67;;;2.25;;
78781;SDS011;68126;55.748;48.742;2023-03-17T18:54:37;2.90;;;2.60;;
78781;SDS011;68126;55.748;48.742;2023-03-17T19:00:02;2.10;;;1.82;;
78781;SDS011;68126;55.748;48.742;2023-03-17T19:05:27;1.87;;;1.32;;
78781;SDS011;68126;55.748;48.742;2023-03-17T19:10:52;2.70;;;1.05;;
78781;SDS011;68126;55.748;48.742;2023-03-17T19:16:16;1.60;;;1.05;;
78781;SDS011;68126;55.748;48.742;2023-03-17T19:21:41;1.65;;;1.50;;
78781;SDS011;68126;55.748;48.742;2023-03-17T19:27:06;1.75;;;1.65;;
78781;SDS011;68126;55.748;48.742;2023-03-17T19:32:30;1.27;;;0.95;;
78781;SDS011;68126;55.748;48.742;2023-03-17T19:37:55;1.35;;;1.22;;
78781;SDS011;68126;55.748;48.742;2023-03-17T19:43:20;1.05;;;0.80;;
78781;SDS011;68126;55.748;48.742;2023-03-17T19:48:45;1.37;;;1.22;;
78781;SDS011;68126;55.748;48.742;2023-03-17T19:54:10;1.35;;;1.25;;
78781;SDS011;68126;55.748;48.742;2023-03-17T19:59:34;0.85;;;0.65;;
78781;SDS011;68126;55.748;48.742;2023-03-17T20:05:01;1.80;;;1.67;;
78781;SDS011;68126;55.748;48.742;2023-03-17T20:10:27;1.32;;;1.05;;
78781;SDS011;68126;55.748;48.742;2023-03-17T20:15:52;1.90;;;0.62;;
78781;SDS011;68126;55.748;48.742;2023-03-17T20:21:17;1.35;;;0.78;;
78781;SDS011;68126;55.748;48.742;2023-03-17T20:26:41;2.70;;;0.68;;
78781;SDS011;68126;55.748;48.742;2023-03-17T20:32:06;1.22;;;1.12;;
78781;SDS011;68126;55.748;48.742;2023-03-17T20:37:31;0.90;;;0.68;;
78781;SDS011;68126;55.748;48.742;2023-03-17T20:42:56;1.30;;;1.20;;
78781;SDS011;68126;55.748;48.742;2023-03-17T20:48:21;1.87;;;1.77;;
78781;SDS011;68126;55.748;48.742;2023-03-17T20:53:46;1.75;;;1.65;;
78781;SDS011;68126;55.748;48.742;2023-03-17T20:59:11;0.98;;;0.88;;
78781;SDS011;68126;55.748;48.742;2023-03-17T21:04:36;0.72;;;0.72;;
78781;SDS011;68126;55.748;48.742;2023-03-17T21:10:01;1.02;;;0.57;;
78781;SDS011;68126;55.748;48.742;2023-03-17T21:15:27;1.27;;;1.15;;
78781;SDS011;68126;55.748;48.742;2023-03-17T21:20:51;0.80;;;0.60;;
78781;SDS011;68126;55.748;48.742;2023-03-17T21:26:16;1.37;;;1.27;;
78781;SDS011;68126;55.748;48.742;2023-03-17T21:31:41;1.27;;;1.17;;
78781;SDS011;68126;55.748;48.742;2023-03-17T21:37:05;1.60;;;1.50;;
78781;SDS011;68126;55.748;48.742;2023-03-17T21:42:30;1.77;;;0.78;;
78781;SDS011;68126;55.748;48.742;2023-03-17T21:47:54;1.67;;;0.95;;
78781;SDS011;68126;55.748;48.742;2023-03-17T21:53:19;0.82;;;0.60;;
78781;SDS011;68126;55.748;48.742;2023-03-17T21:58:44;1.75;;;1.65;;
78781;SDS011;68126;55.748;48.742;2023-03-17T22:04:09;3.58;;;1.02;;
78781;SDS011;68126;55.748;48.742;2023-03-17T22:09:35;1.25;;;0.95;;
78781;SDS011;68126;55.748;48.742;2023-03-17T22:14:59;0.98;;;0.75;;
78781;SDS011;68126;55.748;48.742;2023-03-17T22:20:25;1.50;;;0.82;;
78781;SDS011;68126;55.748;48.742;2023-03-17T22:25:51;2.00;;;1.42;;
78781;SDS011;68126;55.748;48.742;2023-03-17T22:31:17;1.22;;;0.80;;
78781;SDS011;68126;55.748;48.742;2023-03-17T22:36:42;1.07;;;0.85;;
78781;SDS011;68126;55.748;48.742;2023-03-17T22:42:07;2.27;;;1.42;;
78781;SDS011;68126;55.748;48.742;2023-03-17T22:47:32;1.87;;;0.78;;
78781;SDS011;68126;55.748;48.742;2023-03-17T22:52:57;0.98;;;0.72;;
78781;SDS011;68126;55.748;48.742;2023-03-17T22:58:22;1.60;;;1.50;;
78781;SDS011;68126;55.748;48.742;2023-03-17T23:03:47;1.37;;;1.07;;
78781;SDS011;68126;55.748;48.742;2023-03-17T23:09:12;1.22;;;0.75;;
78781;SDS011;68126;55.748;48.742;2023-03-17T23:14:36;1.65;;;1.05;;
78781;SDS011;68126;55.748;48.742;2023-03-17T23:20:02;5.47;;;1.37;;
78781;SDS011;68126;55.748;48.742;2023-03-17T23:25:27;1.37;;;0.88;;
78781;SDS011;68126;55.748;48.742;2023-03-17T23:30:52;1.75;;;1.65;;
78781;SDS011;68126;55.748;48.742;2023-03-17T23:36:17;1.52;;;1.25;;
78781;SDS011;68126;55.748;48.742;2023-03-17T23:41:42;3.80;;;1.30;;
78781;SDS011;68126;55.748;48.742;2023-03-17T23:47:07;2.67;;;1.30;;
78781;SDS011;68126;55.748;48.742;2023-03-17T23:52:31;1.62;;;1.15;;
78781;SDS011;68126;55.748;48.742;2023-03-17T23:57:57;2.27;;;0.72;;
